Terminal Aerodrome Forecast
Issued by NWS Bismarck, ND

Home | Current Version | Previous Version | Text Only | Print | Product List | Glossary On
Versions: 1 2 3 4 5 6 7 8 9 10 11 12 13 14 15 16 17 18 19 20 21 22 23 24 25 26 27 28 29 30
000
FTUS43 KBIS 280520
TAFISN
TAF
KISN 280520Z 2806/0106 03004KT P6SM SCT200
     FM280700 VRB03KT P6SM BKN100
     FM281000 09004KT P6SM BKN030
     FM281400 12005KT P6SM OVC008
     FM281800 15007KT P6SM OVC010=

USA.gov is the U.S. government's official web portal to all federal, state and local government web resources and services.